Baltimore, Maryland
Traffic Map
Current Weather Conditions
Baltimore, Maryland
Few Clouds
Few Clouds
26°
Feels Like: 27°
Wind Chill: 26° Ceiling: Unl
Heat Index: 27° Visibility: 10mi
Dew Point: 21° Wind: 7mph
Humidity: 76% Direction: 280° (W)
Pressure: 29.94in Gusts: 0mph
Raw Report DataKBWI 231054Z 28006KT 10SM FEW060 26/21 A2994 RMK AO2 SLP136 T02560211
Traffic Incident Summary
Active as of:
Severity:
Category:
InformationThere was an issue retrieving the traffic information for this location. Please try a different location or try again shortly.
Advertisements
Track Severe Weather on mobile